createdAt,value
2019-03-12T00:02:25.822Z,2.23
2019-03-12T00:04:56.148Z,2.67
2019-03-12T00:07:29.400Z,3.10
2019-03-12T00:10:02.698Z,2.73
2019-03-12T00:12:33.285Z,2.80
2019-03-12T00:15:04.732Z,2.93
2019-03-12T00:17:34.916Z,3.13
2019-03-12T00:20:09.171Z,3.10
2019-03-12T00:22:39.561Z,3.13
2019-03-12T00:25:10.637Z,3.20
2019-03-12T00:27:42.207Z,3.70
2019-03-12T00:30:13.963Z,2.93
2019-03-12T00:32:46.817Z,3.40
2019-03-12T00:35:18.508Z,2.87
2019-03-12T00:37:49.877Z,3.13
2019-03-12T00:40:21.126Z,3.13
2019-03-12T00:42:53.321Z,3.20
2019-03-12T00:45:24.795Z,2.43
2019-03-12T00:47:55.908Z,2.20
2019-03-12T00:50:27.235Z,2.70
2019-03-12T00:52:58.682Z,2.67
2019-03-12T00:55:31.267Z,2.17
2019-03-12T00:58:01.895Z,2.30
2019-03-12T01:00:33.427Z,2.50
2019-03-12T01:03:04.968Z,2.27
2019-03-12T01:05:38.049Z,2.50
2019-03-12T01:08:09.491Z,2.17
2019-03-12T01:10:41.088Z,2.20
2019-03-12T01:13:15.244Z,2.57
2019-03-12T01:15:48.660Z,1.90
2019-03-12T01:18:20.042Z,2.90
2019-03-12T01:20:51.281Z,2.50
2019-03-12T01:23:22.900Z,1.97
2019-03-12T01:25:56.441Z,1.90
2019-03-12T01:28:27.591Z,2.00
2019-03-12T01:30:58.731Z,1.97
2019-03-12T01:33:29.137Z,2.43
2019-03-12T01:36:00.511Z,2.10
2019-03-12T01:38:34.089Z,1.87
2019-03-12T01:41:04.832Z,1.83
2019-03-12T01:43:35.728Z,2.20
2019-03-12T01:46:06.232Z,2.33
2019-03-12T01:48:37.989Z,1.50
2019-03-12T01:51:11.776Z,1.80
2019-03-12T01:53:43.298Z,1.90
2019-03-12T01:56:14.921Z,2.03
2019-03-12T01:58:45.338Z,2.20
2019-03-12T02:01:18.748Z,2.03
2019-03-12T02:03:49.437Z,2.57
2019-03-12T02:06:20.836Z,2.93
2019-03-12T02:08:51.772Z,2.13
2019-03-12T02:11:26.279Z,2.17
2019-03-12T02:13:59.281Z,2.30
2019-03-12T02:16:30.663Z,2.03
2019-03-12T02:19:02.285Z,1.83
2019-03-12T02:21:35.027Z,2.30
2019-03-12T02:24:07.515Z,1.77
2019-03-12T02:26:39.055Z,1.90
2019-03-12T02:29:10.453Z,2.20
2019-03-12T02:31:41.667Z,2.63
2019-03-12T02:34:15.187Z,2.97
2019-03-12T02:36:46.431Z,2.23
2019-03-12T02:39:16.750Z,1.77
2019-03-12T02:41:47.449Z,2.03
2019-03-12T02:44:17.809Z,2.50
2019-03-12T02:46:49.888Z,2.00
2019-03-12T02:49:21.060Z,2.20
2019-03-12T02:51:52.506Z,1.97
2019-03-12T02:54:23.712Z,2.43
2019-03-12T02:56:56.906Z,1.93
2019-03-12T02:59:30.909Z,2.03
2019-03-12T03:02:01.664Z,1.60
2019-03-12T03:04:33.009Z,2.20
2019-03-12T03:07:06.239Z,2.47
2019-03-12T03:09:37.610Z,2.07
2019-03-12T03:12:09.158Z,1.67
2019-03-12T03:14:40.628Z,1.70
2019-03-12T03:17:14.589Z,1.93
2019-03-12T03:19:46.950Z,2.10
2019-03-12T03:22:17.770Z,2.20
2019-03-12T03:24:49.450Z,2.60
2019-03-12T03:27:21.941Z,2.67
2019-03-12T03:29:55.529Z,3.03
2019-03-12T03:32:27.174Z,2.13
2019-03-12T03:34:57.895Z,2.03
2019-03-12T03:37:28.593Z,2.37
2019-03-12T03:40:01.562Z,2.40
2019-03-12T03:42:31.999Z,2.10
2019-03-12T03:45:03.150Z,2.37
2019-03-12T03:47:35.802Z,2.60
2019-03-12T03:50:10.669Z,2.67
2019-03-12T03:52:42.023Z,3.10
2019-03-12T03:55:14.639Z,2.40
2019-03-12T03:57:46.319Z,3.40
2019-03-12T04:00:21.254Z,3.03
2019-03-12T04:02:52.904Z,2.80
2019-03-12T04:05:23.499Z,2.43
2019-03-12T04:07:54.914Z,2.70
2019-03-12T04:10:27.191Z,2.33
2019-03-12T04:12:57.990Z,3.17
2019-03-12T04:15:28.273Z,2.50
2019-03-12T04:17:59.552Z,3.43
2019-03-12T04:20:30.925Z,3.27
2019-03-12T04:23:03.915Z,3.17
2019-03-12T04:25:36.212Z,3.23
2019-03-12T04:28:07.676Z,2.70
2019-03-12T04:30:38.409Z,2.33
2019-03-12T04:33:14.035Z,3.17
2019-03-12T04:35:44.863Z,2.83
2019-03-12T04:38:15.606Z,2.67
2019-03-12T04:40:47.182Z,3.20
2019-03-12T04:43:17.963Z,3.13
2019-03-12T04:45:51.683Z,2.80
2019-03-12T04:48:23.094Z,2.60
2019-03-12T04:50:53.752Z,2.50
2019-03-12T04:53:25.203Z,3.00
2019-03-12T04:55:58.923Z,3.40
2019-03-12T04:58:29.591Z,3.20
2019-03-12T05:01:00.654Z,3.00
2019-03-12T05:03:31.029Z,2.73
2019-03-12T05:06:02.051Z,3.50
2019-03-12T05:08:35.402Z,3.00
2019-03-12T05:11:06.855Z,3.27
2019-03-12T05:13:37.414Z,3.80
2019-03-12T05:16:08.491Z,4.03
2019-03-12T05:18:39.483Z,3.23
2019-03-12T05:21:13.232Z,2.47
2019-03-12T05:23:43.731Z,3.07
2019-03-12T05:26:14.757Z,3.73
2019-03-12T05:28:45.644Z,2.60
2019-03-12T05:31:16.134Z,2.77
2019-03-12T05:33:50.018Z,2.70
2019-03-12T05:36:21.503Z,3.37
2019-03-12T05:38:52.864Z,3.70
2019-03-12T05:41:24.431Z,3.60
2019-03-12T05:43:57.936Z,3.07
2019-03-12T05:46:28.840Z,2.83
2019-03-12T05:49:00.122Z,3.23
2019-03-12T05:51:30.679Z,3.23
2019-03-12T05:54:01.211Z,2.87
2019-03-12T05:56:33.414Z,3.27
2019-03-12T05:59:04.966Z,2.83
2019-03-12T06:01:36.397Z,3.00
2019-03-12T06:04:10.321Z,3.40
2019-03-12T06:06:42.464Z,3.17
2019-03-12T06:09:29.441Z,3.33
2019-03-12T06:11:50.572Z,3.03
2019-03-12T06:14:24.247Z,3.53
2019-03-12T06:16:56.064Z,4.20
2019-03-12T06:19:26.546Z,3.63
2019-03-12T06:21:58.229Z,3.57
2019-03-12T06:24:28.686Z,3.67
2019-03-12T06:27:14.342Z,3.30
2019-03-12T06:29:47.447Z,3.43
2019-03-12T06:32:19.908Z,4.47
2019-03-12T06:34:53.129Z,3.93
2019-03-12T06:37:29.541Z,3.17
2019-03-12T06:40:05.163Z,3.60
2019-03-12T06:42:44.549Z,3.13
2019-03-12T06:45:17.264Z,3.43
2019-03-12T06:47:50.415Z,3.97
2019-03-12T06:50:33.612Z,2.93
2019-03-12T06:53:17.037Z,3.00
2019-03-12T06:55:56.108Z,3.40
2019-03-12T06:58:32.108Z,3.60
2019-03-12T07:01:16.541Z,3.73
2019-03-12T07:04:05.127Z,3.43
2019-03-12T07:06:54.590Z,2.73
2019-03-12T07:09:42.438Z,3.47
2019-03-12T07:12:30.887Z,3.87
2019-03-12T07:15:03.950Z,3.43
2019-03-12T07:17:48.312Z,3.00
2019-03-12T07:20:21.000Z,2.80
2019-03-12T07:23:08.385Z,3.33
2019-03-12T07:25:50.526Z,2.90
2019-03-12T07:28:20.955Z,3.17
2019-03-12T07:30:56.502Z,3.37
2019-03-12T07:33:30.185Z,2.57
2019-03-12T07:36:03.935Z,3.07
2019-03-12T07:38:52.536Z,2.60
2019-03-12T07:41:31.925Z,2.70
2019-03-12T07:44:08.356Z,2.70
2019-03-12T07:47:08.275Z,3.73
2019-03-12T07:49:52.304Z,2.60
2019-03-12T07:52:39.604Z,2.97
2019-03-12T07:55:29.888Z,2.60
2019-03-12T07:58:07.555Z,2.73
2019-03-12T08:00:42.700Z,2.57
2019-03-12T08:03:15.556Z,2.80
2019-03-12T08:06:05.524Z,3.20
2019-03-12T08:08:42.904Z,2.70
2019-03-12T08:11:19.309Z,3.47
2019-03-12T08:13:50.954Z,2.83
2019-03-12T08:16:39.062Z,2.40
2019-03-12T08:19:11.487Z,3.23
2019-03-12T08:21:49.679Z,2.90
2019-03-12T08:24:38.518Z,2.87
2019-03-12T08:27:26.137Z,2.47
2019-03-12T08:29:57.766Z,2.90
2019-03-12T08:32:42.154Z,2.90
2019-03-12T08:35:20.176Z,1.87
2019-03-12T08:37:58.153Z,2.60
2019-03-12T08:40:33.695Z,3.00
2019-03-12T08:43:15.046Z,3.40
2019-03-12T08:45:48.865Z,6.20
2019-03-12T08:48:33.063Z,5.03
2019-03-12T08:51:05.563Z,3.80
2019-03-12T08:53:43.126Z,8.10
2019-03-12T08:56:27.746Z,4.13
2019-03-12T08:59:00.538Z,3.20
2019-03-12T09:01:47.389Z,3.30
2019-03-12T09:04:35.490Z,2.93
2019-03-12T09:07:07.601Z,3.00
2019-03-12T09:09:40.482Z,3.33
2019-03-12T09:12:15.683Z,2.70
2019-03-12T09:14:48.906Z,3.17
2019-03-12T09:17:29.275Z,2.80
2019-03-12T09:20:10.277Z,2.83
2019-03-12T09:22:43.200Z,2.90
2019-03-12T09:25:17.015Z,3.00
2019-03-12T09:28:17.305Z,3.20
2019-03-12T09:30:49.799Z,3.03
2019-03-12T09:33:28.217Z,3.13
2019-03-12T09:36:02.128Z,2.77
2019-03-12T09:38:35.288Z,3.20
2019-03-12T09:41:08.045Z,2.90
2019-03-12T09:43:42.390Z,3.17
2019-03-12T09:46:18.380Z,2.90
2019-03-12T09:49:06.117Z,2.83
2019-03-12T09:51:44.339Z,3.17
2019-03-12T09:54:23.623Z,2.90
2019-03-12T09:57:07.962Z,2.97
2019-03-12T09:59:49.699Z,2.70
2019-03-12T10:02:31.287Z,2.93
2019-03-12T10:05:12.099Z,3.20
2019-03-12T10:07:53.785Z,2.93
2019-03-12T10:10:30.728Z,3.20
2019-03-12T10:13:07.824Z,2.80
2019-03-12T10:15:49.704Z,3.13
2019-03-12T10:18:26.045Z,3.20
2019-03-12T10:21:09.718Z,3.10
2019-03-12T10:23:57.939Z,3.50
2019-03-12T10:26:34.162Z,2.70
2019-03-12T10:29:22.588Z,2.70
2019-03-12T10:32:01.765Z,3.10
2019-03-12T10:34:43.657Z,2.63
2019-03-12T10:37:27.606Z,3.20
2019-03-12T10:40:23.609Z,3.77
2019-03-12T10:43:05.328Z,3.37
2019-03-12T10:45:38.959Z,3.73
2019-03-12T10:48:11.837Z,3.63
2019-03-12T10:50:42.777Z,3.30
2019-03-12T10:53:14.305Z,3.23
2019-03-12T10:55:47.156Z,3.77
2019-03-12T10:58:18.064Z,3.03
2019-03-12T11:00:49.697Z,3.30
2019-03-12T11:03:20.525Z,2.70
2019-03-12T11:05:55.339Z,3.40
2019-03-12T11:08:27.798Z,3.37
2019-03-12T11:10:59.177Z,3.17
2019-03-12T11:13:30.753Z,3.37
2019-03-12T11:16:01.546Z,3.50
2019-03-12T11:18:34.939Z,3.27
2019-03-12T11:21:05.582Z,2.77
2019-03-12T11:23:37.222Z,3.40
2019-03-12T11:26:08.072Z,3.20
2019-03-12T11:28:41.666Z,3.50
2019-03-12T11:31:12.697Z,3.40
2019-03-12T11:33:43.776Z,2.93
2019-03-12T11:36:14.309Z,2.50
2019-03-12T11:38:45.744Z,3.00
2019-03-12T11:41:19.153Z,3.03
2019-03-12T11:43:50.489Z,3.70
2019-03-12T11:46:22.115Z,3.47
2019-03-12T11:48:53.789Z,3.57
2019-03-12T11:51:26.564Z,3.63
2019-03-12T11:53:57.157Z,2.80
2019-03-12T11:56:28.708Z,3.47
2019-03-12T11:58:59.398Z,3.83
2019-03-12T12:01:30.475Z,3.60
2019-03-12T12:04:07.802Z,3.10
2019-03-12T12:06:42.522Z,2.87
2019-03-12T12:09:12.542Z,3.03
2019-03-12T12:11:45.973Z,2.90
2019-03-12T12:14:19.651Z,3.00
2019-03-12T12:16:50.855Z,3.20
2019-03-12T12:19:26.861Z,2.87
2019-03-12T12:21:57.705Z,2.73
2019-03-12T12:24:29.162Z,2.57
2019-03-12T12:27:01.817Z,3.10
2019-03-12T12:29:36.398Z,2.57
2019-03-12T12:32:07.703Z,2.80
2019-03-12T12:34:39.245Z,2.73
2019-03-12T12:37:13.691Z,2.77
2019-03-12T12:39:45.219Z,3.17
2019-03-12T12:42:16.075Z,2.13
2019-03-12T12:44:47.306Z,2.43
2019-03-12T12:47:18.138Z,2.97
2019-03-12T12:49:49.045Z,2.70
2019-03-12T12:52:23.164Z,2.70
2019-03-12T12:54:54.191Z,2.53
2019-03-12T12:57:26.086Z,2.67
2019-03-12T12:59:57.823Z,2.33
2019-03-12T13:02:31.601Z,3.17
2019-03-12T13:05:02.703Z,2.83
2019-03-12T13:07:33.137Z,3.03
2019-03-12T13:10:03.856Z,2.93
2019-03-12T13:12:38.304Z,2.53
2019-03-12T13:15:12.274Z,2.93
2019-03-12T13:17:45.037Z,2.90
2019-03-12T13:20:15.523Z,2.17
2019-03-12T13:22:49.226Z,2.87
2019-03-12T13:25:19.562Z,3.03
2019-03-12T13:27:51.178Z,2.63
2019-03-12T13:30:25.493Z,2.60
2019-03-12T13:32:58.988Z,2.40
2019-03-12T13:35:29.430Z,1.90
2019-03-12T13:38:00.935Z,2.00
2019-03-12T13:40:32.489Z,2.47
2019-03-12T13:43:06.015Z,2.50
2019-03-12T13:45:36.704Z,2.40
2019-03-12T13:48:08.590Z,2.00
2019-03-12T13:50:40.078Z,2.60
2019-03-12T13:53:15.947Z,1.57
2019-03-12T13:55:47.365Z,2.30
2019-03-12T13:58:18.452Z,1.77
2019-03-12T14:00:50.059Z,2.73
2019-03-12T14:03:23.081Z,2.33
2019-03-12T14:05:54.833Z,1.70
2019-03-12T14:08:25.362Z,2.00
2019-03-12T14:10:56.170Z,1.90
2019-03-12T14:13:27.702Z,2.47
2019-03-12T14:16:01.636Z,1.87
2019-03-12T14:18:34.022Z,1.60
2019-03-12T14:21:09.183Z,1.87
2019-03-12T14:23:48.737Z,2.30
2019-03-12T14:26:20.212Z,1.47
2019-03-12T14:28:52.711Z,2.40
2019-03-12T14:31:26.109Z,1.83
2019-03-12T14:33:58.029Z,1.80
2019-03-12T14:36:29.608Z,1.60
2019-03-12T14:39:02.531Z,1.83
2019-03-12T14:41:35.554Z,2.10
2019-03-12T14:44:06.334Z,1.77
2019-03-12T14:46:37.842Z,1.60
2019-03-12T14:49:09.584Z,1.50
2019-03-12T14:51:44.495Z,1.80
2019-03-12T14:54:15.357Z,1.80
2019-03-12T14:56:47.826Z,1.97
2019-03-12T14:59:18.462Z,1.63
2019-03-12T15:01:52.783Z,1.93
2019-03-12T15:04:25.190Z,2.70
2019-03-12T15:06:55.798Z,1.67
2019-03-12T15:09:27.850Z,1.57
2019-03-12T15:12:01.816Z,1.87
2019-03-12T15:14:33.575Z,1.90
2019-03-12T15:17:04.436Z,1.57
2019-03-12T15:19:41.493Z,2.30
2019-03-12T15:22:12.658Z,2.17
2019-03-12T15:24:43.477Z,1.77
2019-03-12T15:27:14.389Z,1.67
2019-03-12T15:29:46.301Z,1.40
2019-03-12T15:32:19.350Z,1.97
2019-03-12T15:34:50.198Z,1.13
2019-03-12T15:37:22.152Z,1.93
2019-03-12T15:39:53.586Z,1.47
2019-03-12T15:42:28.076Z,1.67
2019-03-12T15:44:58.798Z,1.63
2019-03-12T15:47:30.420Z,1.60
2019-03-12T15:50:01.347Z,1.70
2019-03-12T15:52:33.347Z,1.47
2019-03-12T15:55:06.900Z,1.50
2019-03-12T15:57:38.355Z,0.90
2019-03-12T16:00:19.329Z,1.43
2019-03-12T16:02:50.117Z,1.43
2019-03-12T16:05:20.923Z,1.03
2019-03-12T16:07:52.080Z,1.50
2019-03-12T16:10:22.937Z,1.20
2019-03-12T16:12:57.203Z,1.10
2019-03-12T16:15:28.947Z,0.90
2019-03-12T16:18:00.406Z,1.00
2019-03-12T16:20:35.338Z,1.30
2019-03-12T16:23:06.953Z,1.50
2019-03-12T16:25:38.825Z,0.90
2019-03-12T16:28:10.302Z,1.20
2019-03-12T16:30:40.950Z,4.40
2019-03-12T16:33:13.890Z,1.20
2019-03-12T16:35:45.669Z,1.00
2019-03-12T16:38:16.560Z,1.00
2019-03-12T16:40:47.288Z,0.60
2019-03-12T16:43:18.075Z,1.47
2019-03-12T16:45:52.006Z,0.87
2019-03-12T16:51:12.716Z,1.10
2019-03-12T16:53:44.187Z,0.90
2019-03-12T16:56:18.256Z,1.00
2019-03-12T16:58:51.298Z,0.90
2019-03-12T17:01:24.590Z,1.10
2019-03-12T17:04:00.314Z,1.60
2019-03-12T17:06:31.012Z,1.13
2019-03-12T17:09:01.546Z,1.03
2019-03-12T17:11:32.310Z,1.00
2019-03-12T17:14:05.475Z,1.83
2019-03-12T17:16:36.846Z,0.90
2019-03-12T17:19:09.360Z,1.37
2019-03-12T17:21:40.066Z,1.27
2019-03-12T17:24:11.916Z,1.20
2019-03-12T17:26:45.466Z,1.20
2019-03-12T17:29:16.606Z,1.40
2019-03-12T17:31:47.870Z,1.53
2019-03-12T17:34:18.542Z,1.50
2019-03-12T17:36:50.358Z,1.50
2019-03-12T17:39:24.114Z,1.80
2019-03-12T17:41:56.263Z,1.67
2019-03-12T17:44:27.299Z,1.40
2019-03-12T17:46:59.175Z,1.30
2019-03-12T17:49:35.195Z,1.87
2019-03-12T17:52:06.558Z,1.30
2019-03-12T17:54:39.552Z,1.70
2019-03-12T17:57:13.829Z,1.70
2019-03-12T17:59:48.816Z,1.57
2019-03-12T18:02:19.461Z,1.60
2019-03-12T18:04:56.331Z,1.87
2019-03-12T18:07:38.501Z,1.40
2019-03-12T18:10:14.828Z,1.73
2019-03-12T18:12:45.456Z,1.73
2019-03-12T18:15:23.571Z,2.07
2019-03-12T18:17:55.497Z,1.40
2019-03-12T18:20:27.468Z,1.63
2019-03-12T18:22:59.525Z,1.60
2019-03-12T18:25:39.546Z,1.43
2019-03-12T18:28:11.346Z,1.87
2019-03-12T18:30:42.797Z,1.90
2019-03-12T18:33:16.885Z,2.10
2019-03-12T18:35:47.981Z,1.43
2019-03-12T18:38:19.782Z,1.87
2019-03-12T18:40:50.500Z,2.20
2019-03-12T18:43:24.388Z,1.73
2019-03-12T18:45:56.394Z,2.07
2019-03-12T18:48:26.989Z,1.70
2019-03-12T18:50:57.524Z,2.40
2019-03-12T18:53:28.925Z,1.73
2019-03-12T18:56:02.282Z,1.73
2019-03-12T18:58:34.280Z,1.67
2019-03-12T19:01:05.918Z,1.97
2019-03-12T19:03:36.520Z,2.20
2019-03-12T19:06:10.158Z,1.87
2019-03-12T19:08:48.077Z,1.90
2019-03-12T19:11:25.620Z,1.80
2019-03-12T19:13:57.671Z,2.00
2019-03-12T19:16:29.895Z,1.70
2019-03-12T19:19:01.193Z,1.80
2019-03-12T19:21:34.577Z,1.70
2019-03-12T19:24:18.233Z,1.43
2019-03-12T19:26:51.601Z,2.20
2019-03-12T19:29:23.460Z,2.00
2019-03-12T19:32:03.431Z,1.83
2019-03-12T19:34:34.597Z,1.70
2019-03-12T19:37:06.400Z,2.40
2019-03-12T19:39:37.857Z,1.80
2019-03-12T19:42:08.424Z,1.77
2019-03-12T19:44:41.398Z,2.03
2019-03-12T19:47:12.767Z,2.40
2019-03-12T19:49:45.114Z,1.67
2019-03-12T19:52:16.124Z,2.33
2019-03-12T19:54:49.335Z,2.33
2019-03-12T19:57:20.503Z,1.80
2019-03-12T19:59:51.411Z,2.13
2019-03-12T20:02:22.751Z,1.90
2019-03-12T20:04:53.219Z,2.00
2019-03-12T20:07:26.735Z,1.77
2019-03-12T20:10:00.847Z,1.67
2019-03-12T20:12:35.307Z,2.37
2019-03-12T20:15:28.633Z,2.37
2019-03-12T20:18:22.786Z,1.97
2019-03-12T20:21:19.043Z,1.70
2019-03-12T20:24:20.125Z,1.67
2019-03-12T20:27:18.012Z,1.47
2019-03-12T20:30:19.772Z,1.73
2019-03-12T20:33:00.614Z,1.63
2019-03-12T20:36:07.650Z,1.90
2019-03-12T20:39:03.625Z,1.73
2019-03-12T20:41:59.929Z,1.83
2019-03-12T20:44:58.218Z,1.90
2019-03-12T20:47:40.811Z,1.80
2019-03-12T20:50:39.837Z,1.80
2019-03-12T20:53:26.006Z,2.30
2019-03-12T20:56:08.224Z,1.70
2019-03-12T20:58:57.160Z,1.80
2019-03-12T21:02:03.087Z,1.97
2019-03-12T21:04:51.637Z,1.57
2019-03-12T21:07:46.959Z,2.00
2019-03-12T21:10:48.582Z,1.60
2019-03-12T21:13:28.728Z,1.73
2019-03-12T21:16:27.564Z,1.53
2019-03-12T21:19:32.864Z,1.50
2019-03-12T21:22:11.449Z,1.77
2019-03-12T21:24:57.202Z,1.90
2019-03-12T21:27:42.466Z,1.60
2019-03-12T21:30:12.432Z,1.80
2019-03-12T21:32:43.515Z,2.00
2019-03-12T21:35:16.500Z,1.40
2019-03-12T21:37:46.929Z,1.73
2019-03-12T21:40:18.560Z,1.50
2019-03-12T21:42:50.217Z,1.87
2019-03-12T21:45:24.559Z,1.30
2019-03-12T21:48:01.030Z,1.40
2019-03-12T21:50:31.841Z,1.40
2019-03-12T21:53:02.787Z,1.40
2019-03-12T21:55:37.811Z,1.13
2019-03-12T21:58:09.385Z,1.30
2019-03-12T22:00:41.607Z,1.57
2019-03-12T22:03:16.561Z,1.57
2019-03-12T22:05:48.025Z,1.20
2019-03-12T22:08:19.202Z,1.53
2019-03-12T22:10:50.771Z,1.50
2019-03-12T22:13:24.711Z,1.47
2019-03-12T22:15:56.435Z,1.47
2019-03-12T22:18:29.854Z,1.87
2019-03-12T22:21:00.898Z,1.93
2019-03-12T22:23:36.251Z,1.50
2019-03-12T22:26:07.931Z,1.80
2019-03-12T22:28:39.368Z,1.60
2019-03-12T22:31:11.121Z,1.13
2019-03-12T22:33:45.393Z,1.30
2019-03-12T22:36:17.297Z,1.30
2019-03-12T22:38:47.787Z,1.30
2019-03-12T22:41:18.492Z,1.23
2019-03-12T22:43:51.069Z,1.10
2019-03-12T22:46:22.929Z,1.27
2019-03-12T22:48:54.939Z,1.47
2019-03-12T22:51:25.457Z,2.20
2019-03-12T22:53:59.424Z,1.33
2019-03-12T22:56:31.964Z,1.40
2019-03-12T22:59:03.102Z,1.83
2019-03-12T23:01:34.071Z,1.87
2019-03-12T23:04:04.839Z,1.20
2019-03-12T23:06:38.026Z,1.23
2019-03-12T23:09:09.708Z,1.60
2019-03-12T23:11:41.331Z,1.50
2019-03-12T23:14:12.549Z,1.30
2019-03-12T23:16:47.181Z,1.27
2019-03-12T23:19:17.817Z,1.03
2019-03-12T23:21:49.115Z,1.20
2019-03-12T23:24:20.151Z,1.20
2019-03-12T23:26:56.362Z,1.10
2019-03-12T23:29:27.305Z,0.80
2019-03-12T23:31:57.699Z,0.70
2019-03-12T23:34:29.062Z,0.70
2019-03-12T23:37:10.461Z,0.60
2019-03-12T23:39:42.421Z,0.50
2019-03-12T23:42:14.708Z,0.40
2019-03-12T23:44:49.514Z,1.13
2019-03-12T23:47:21.566Z,0.40
2019-03-12T23:49:53.027Z,0.30
2019-03-12T23:52:23.452Z,0.50
2019-03-12T23:54:57.484Z,0.40
2019-03-12T23:57:29.496Z,0.30
